THA330 VOHS-VTBS
Flight info
| Callsign | THA330 |
|---|---|
| Flight time | N/A |
| Altitude | 41000 |
| Route | VIRKO7 AKSAN W29 VVZ L301 DWI L877 MIGAR L524 IBETO WILLA1C |
| Aircraft | B772/H-SDE2E3FGHIJ5LORVWXY/LB1D1 |
Departure
| Time | 2026-04-25 21:38 |
|---|---|
| Airport | Rajiv Gandhi International Airport (VOHS) |
Arrival
| Time | N/A |
|---|---|
| Airport | Suvarnabhumi Airport (VTBS) |
| Time | Latitude | Longitude | Altitude | Speed | Heading |
|---|---|---|---|---|---|
| 2026-04-25 21:00 | 17.23423 | 78.42732 | 1998 ft | 0 kts | 359° |
| 2026-04-25 21:29 | 17.23422 | 78.42732 | 1998 ft | 0 kts | 359° |
| 2026-04-25 21:29 | 17.23416 | 78.42731 | 1998 ft | 2 kts | 15° |
| 2026-04-25 21:30 | 17.23402 | 78.42728 | 1998 ft | 2 kts | 4° |
| 2026-04-25 21:30 | 17.23392 | 78.42728 | 1998 ft | 2 kts | 356° |
| 2026-04-25 21:30 | 17.23378 | 78.42730 | 1999 ft | 2 kts | 340° |
| 2026-04-25 21:30 | 17.23368 | 78.42735 | 1999 ft | 2 kts | 330° |
| 2026-04-25 21:31 | 17.23353 | 78.42747 | 2000 ft | 2 kts | 309° |
| 2026-04-25 21:31 | 17.23345 | 78.42760 | 2001 ft | 2 kts | 294° |
| 2026-04-25 21:31 | 17.23340 | 78.42775 | 2001 ft | 2 kts | 278° |
| 2026-04-25 21:31 | 17.23339 | 78.42784 | 2002 ft | 1 kts | 269° |
| 2026-04-25 21:32 | 17.23339 | 78.42787 | 2002 ft | 0 kts | 268° |
| 2026-04-25 21:34 | 17.23335 | 78.42763 | 2001 ft | 11 kts | 251° |
| 2026-04-25 21:35 | 17.23226 | 78.42731 | 1999 ft | 22 kts | 181° |
| 2026-04-25 21:35 | 17.23093 | 78.42696 | 1996 ft | 18 kts | 239° |
| 2026-04-25 21:35 | 17.23081 | 78.42511 | 1989 ft | 35 kts | 269° |
| 2026-04-25 21:35 | 17.23079 | 78.42196 | 1977 ft | 47 kts | 269° |
| 2026-04-25 21:36 | 17.23072 | 78.41844 | 1967 ft | 48 kts | 269° |
| 2026-04-25 21:36 | 17.23069 | 78.41516 | 1966 ft | 34 kts | 269° |
| 2026-04-25 21:36 | 17.23037 | 78.41357 | 1968 ft | 19 kts | 222° |
| 2026-04-25 21:36 | 17.22908 | 78.41313 | 1975 ft | 10 kts | 186° |
| 2026-04-25 21:37 | 17.22862 | 78.41355 | 1977 ft | 10 kts | 92° |
| 2026-04-25 21:37 | 17.22862 | 78.41359 | 1977 ft | 0 kts | 90° |
| 2026-04-25 21:37 | 17.22865 | 78.41691 | 1974 ft | 84 kts | 89° |
| 2026-04-25 21:37 | 17.22876 | 78.42529 | 1990 ft | 145 kts | 88° |
| 2026-04-25 21:38 | 17.22913 | 78.43730 | 2212 ft | 173 kts | 89° |
| 2026-04-25 21:38 | 17.22959 | 78.44961 | 2849 ft | 175 kts | 92° |
| 2026-04-25 21:38 | 17.22971 | 78.46154 | 3637 ft | 160 kts | 93° |
| 2026-04-25 21:38 | 17.22979 | 78.47370 | 3726 ft | 177 kts | 93° |
| 2026-04-25 21:39 | 17.22986 | 78.48745 | 3751 ft | 201 kts | 92° |
| 2026-04-25 21:39 | 17.22996 | 78.50307 | 3903 ft | 224 kts | 92° |
| 2026-04-25 21:39 | 17.23009 | 78.52007 | 4072 ft | 247 kts | 91° |
| 2026-04-25 21:39 | 17.23052 | 78.53894 | 4283 ft | 268 kts | 86° |
| 2026-04-25 21:40 | 17.23347 | 78.55799 | 4931 ft | 270 kts | 80° |
| 2026-04-25 21:40 | 17.23710 | 78.57719 | 5570 ft | 271 kts | 79° |
| 2026-04-25 21:40 | 17.24079 | 78.59675 | 6156 ft | 274 kts | 79° |
| 2026-04-25 21:40 | 17.24438 | 78.61605 | 6770 ft | 276 kts | 79° |
| 2026-04-25 21:41 | 17.24801 | 78.63573 | 7332 ft | 278 kts | 78° |
| 2026-04-25 21:41 | 17.25169 | 78.65561 | 7873 ft | 281 kts | 78° |
| 2026-04-25 21:41 | 17.25538 | 78.67564 | 8395 ft | 283 kts | 77° |
| 2026-04-25 21:41 | 17.25910 | 78.69577 | 8952 ft | 285 kts | 77° |
| 2026-04-25 21:42 | 17.26286 | 78.71619 | 9491 ft | 287 kts | 77° |
| 2026-04-25 21:42 | 17.26664 | 78.73672 | 10074 ft | 289 kts | 76° |
| 2026-04-25 21:42 | 17.27051 | 78.75762 | 10338 ft | 304 kts | 77° |
| 2026-04-25 21:42 | 17.27470 | 78.78033 | 10452 ft | 326 kts | 76° |
| 2026-04-25 21:43 | 17.27909 | 78.80415 | 10569 ft | 347 kts | 77° |
| 2026-04-25 21:43 | 17.28382 | 78.82986 | 10707 ft | 367 kts | 77° |